createdAt,value
2023-04-27T00:02:20.396Z,5.07
2023-04-27T00:04:48.107Z,4.30
2023-04-27T00:07:15.690Z,4.03
2023-04-27T00:09:42.938Z,4.73
2023-04-27T00:12:10.495Z,4.20
2023-04-27T00:14:37.733Z,4.53
2023-04-27T00:17:05.046Z,4.30
2023-04-27T00:19:32.551Z,4.00
2023-04-27T00:22:00.268Z,4.67
2023-04-27T00:24:27.752Z,4.50
2023-04-27T00:26:55.059Z,4.00
2023-04-27T00:29:22.327Z,3.97
2023-04-27T00:31:49.661Z,4.23
2023-04-27T00:34:16.954Z,4.00
2023-04-27T00:36:47.316Z,4.30
2023-04-27T00:39:14.823Z,4.17
2023-04-27T00:41:42.406Z,3.90
2023-04-27T00:44:09.797Z,4.27
2023-04-27T00:46:37.133Z,3.80
2023-04-27T00:49:04.752Z,3.63
2023-04-27T00:51:32.392Z,4.37
2023-04-27T00:54:00.911Z,3.70
2023-04-27T00:56:28.496Z,4.00
2023-04-27T00:58:55.997Z,4.20
2023-04-27T01:01:24.125Z,3.50
2023-04-27T01:03:51.728Z,3.70
2023-04-27T01:06:19.304Z,3.40
2023-04-27T01:08:47.007Z,3.10
2023-04-27T01:11:14.368Z,3.40
2023-04-27T01:13:41.786Z,3.27
2023-04-27T01:16:09.076Z,3.27
2023-04-27T01:18:40.867Z,3.23
2023-04-27T01:21:08.424Z,3.30
2023-04-27T01:23:35.804Z,3.47
2023-04-27T01:26:04.310Z,3.30
2023-04-27T01:28:31.825Z,3.03
2023-04-27T01:31:01.214Z,3.30
2023-04-27T01:33:28.628Z,3.50
2023-04-27T01:35:56.241Z,3.90
2023-04-27T01:38:24.191Z,3.83
2023-04-27T01:40:51.519Z,3.27
2023-04-27T01:43:21.161Z,3.57
2023-04-27T01:45:48.675Z,3.07
2023-04-27T01:48:16.566Z,3.30
2023-04-27T01:50:44.663Z,3.30
2023-04-27T01:53:12.337Z,3.07
2023-04-27T01:55:39.836Z,3.60
2023-04-27T01:58:07.130Z,3.47
2023-04-27T02:00:34.556Z,3.17
2023-04-27T02:03:02.753Z,3.50
2023-04-27T02:05:30.430Z,3.40
2023-04-27T02:07:57.874Z,3.40
2023-04-27T02:10:25.386Z,3.33
2023-04-27T02:12:57.264Z,3.17
2023-04-27T02:15:24.832Z,3.43
2023-04-27T02:17:52.549Z,3.50
2023-04-27T02:20:19.896Z,3.17
2023-04-27T02:22:47.223Z,3.30
2023-04-27T02:25:14.696Z,4.23
2023-04-27T02:27:43.976Z,3.23
2023-04-27T02:30:12.887Z,3.57
2023-04-27T02:32:41.589Z,3.33
2023-04-27T02:35:09.673Z,3.33
2023-04-27T02:37:37.371Z,4.23
2023-04-27T02:40:07.960Z,3.77
2023-04-27T02:42:35.882Z,3.67
2023-04-27T02:45:04.220Z,3.17
2023-04-27T02:47:31.568Z,3.53
2023-04-27T02:49:58.875Z,3.53
2023-04-27T02:52:26.576Z,3.73
2023-04-27T02:54:54.070Z,3.67
2023-04-27T02:57:21.564Z,3.27
2023-04-27T02:59:48.898Z,3.80
2023-04-27T03:02:16.468Z,3.60
2023-04-27T03:04:44.424Z,3.70
2023-04-27T03:07:12.877Z,3.37
2023-04-27T03:09:40.333Z,3.50
2023-04-27T03:12:08.229Z,3.70
2023-04-27T03:14:35.653Z,3.57
2023-04-27T03:17:03.324Z,3.27
2023-04-27T03:19:30.744Z,3.33
2023-04-27T03:21:58.149Z,3.10
2023-04-27T03:24:25.724Z,3.67
2023-04-27T03:26:53.002Z,3.60
2023-04-27T03:29:21.753Z,3.80
2023-04-27T03:31:49.089Z,4.33
2023-04-27T03:34:16.932Z,4.17
2023-04-27T03:36:44.208Z,4.20
2023-04-27T03:39:11.940Z,4.73
2023-04-27T03:41:39.562Z,3.77
2023-04-27T03:44:07.413Z,4.30
2023-04-27T03:46:35.146Z,4.37
2023-04-27T03:49:03.430Z,4.20
2023-04-27T03:51:34.716Z,4.87
2023-04-27T03:54:02.033Z,4.03
2023-04-27T03:56:30.201Z,4.40
2023-04-27T03:58:57.683Z,4.70
2023-04-27T04:01:37.261Z,4.43
2023-04-27T04:04:04.881Z,4.70
2023-04-27T04:06:32.946Z,4.80
2023-04-27T04:09:00.511Z,4.93
2023-04-27T04:11:27.944Z,5.13
2023-04-27T04:13:58.281Z,5.30
2023-04-27T04:16:25.815Z,5.73
2023-04-27T04:18:53.798Z,5.77
2023-04-27T04:21:24.621Z,5.57
2023-04-27T04:23:51.900Z,5.37
2023-04-27T04:26:20.678Z,5.27
2023-04-27T04:28:47.955Z,6.00
2023-04-27T04:31:17.508Z,4.70
2023-04-27T04:33:45.067Z,4.70
2023-04-27T04:36:12.342Z,4.80
2023-04-27T04:38:39.784Z,4.30
2023-04-27T04:41:07.435Z,4.80
2023-04-27T04:43:34.810Z,4.80
2023-04-27T04:46:06.515Z,4.40
2023-04-27T04:48:34.932Z,4.07
2023-04-27T04:51:02.237Z,4.40
2023-04-27T04:53:30.046Z,3.80
2023-04-27T04:55:57.575Z,4.10
2023-04-27T04:58:25.033Z,4.50
2023-04-27T05:00:52.282Z,4.90
2023-04-27T05:03:21.388Z,4.90
2023-04-27T05:05:48.800Z,4.20
2023-04-27T05:08:17.112Z,3.97
2023-04-27T05:10:52.893Z,3.97
2023-04-27T05:13:21.104Z,3.40
2023-04-27T05:15:48.595Z,4.20
2023-04-27T05:18:16.091Z,4.53
2023-04-27T05:20:43.373Z,4.10
2023-04-27T05:23:10.833Z,4.67
2023-04-27T05:25:41.656Z,4.57
2023-04-27T05:28:09.954Z,4.70
2023-04-27T05:30:38.215Z,4.60
2023-04-27T05:33:05.725Z,4.27
2023-04-27T05:35:33.420Z,3.90
2023-04-27T05:38:01.160Z,4.27
2023-04-27T05:40:28.836Z,4.10
2023-04-27T05:42:56.458Z,4.30
2023-04-27T05:45:23.781Z,4.10
2023-04-27T05:47:51.061Z,3.77
2023-04-27T05:50:18.561Z,3.90
2023-04-27T05:52:46.318Z,3.90
2023-04-27T05:55:13.781Z,4.33
2023-04-27T05:57:41.351Z,4.00
2023-04-27T06:00:11.093Z,4.17
2023-04-27T06:02:41.529Z,4.67
2023-04-27T06:05:09.785Z,4.37
2023-04-27T06:07:37.839Z,4.27
2023-04-27T06:10:05.956Z,4.70
2023-04-27T06:12:33.605Z,4.20
2023-04-27T06:15:01.414Z,4.80
2023-04-27T06:17:29.085Z,4.60
2023-04-27T06:19:56.535Z,3.60
2023-04-27T06:22:23.840Z,4.03
2023-04-27T06:24:51.212Z,4.27
2023-04-27T06:27:18.467Z,3.80
2023-04-27T06:29:45.869Z,3.07
2023-04-27T06:32:13.197Z,3.33
2023-04-27T06:34:40.490Z,3.30
2023-04-27T06:37:08.349Z,3.33
2023-04-27T06:39:36.892Z,3.40
2023-04-27T06:42:04.475Z,3.00
2023-04-27T06:44:32.588Z,3.07
2023-04-27T06:46:59.820Z,3.20
2023-04-27T06:49:27.221Z,4.00
2023-04-27T06:51:54.591Z,3.30
2023-04-27T06:54:22.309Z,2.87
2023-04-27T06:56:49.644Z,3.20
2023-04-27T06:59:16.892Z,3.23
2023-04-27T07:01:44.626Z,3.10
2023-04-27T07:04:12.416Z,3.13
2023-04-27T07:06:39.719Z,2.90
2023-04-27T07:09:16.372Z,3.07
2023-04-27T07:11:53.619Z,2.63
2023-04-27T07:14:21.033Z,3.03
2023-04-27T07:16:48.510Z,3.13
2023-04-27T07:19:16.083Z,3.20
2023-04-27T07:21:43.784Z,2.67
2023-04-27T07:24:11.134Z,3.23
2023-04-27T07:26:38.395Z,3.47
2023-04-27T07:29:14.530Z,2.93
2023-04-27T07:31:52.895Z,2.63
2023-04-27T07:34:20.502Z,2.97
2023-04-27T07:36:47.909Z,3.00
2023-04-27T07:39:15.399Z,2.27
2023-04-27T07:41:42.950Z,2.50
2023-04-27T07:44:10.280Z,2.50
2023-04-27T07:46:38.818Z,1.90
2023-04-27T07:49:06.379Z,2.33
2023-04-27T07:51:34.679Z,2.23
2023-04-27T07:54:02.906Z,2.47
2023-04-27T07:56:30.412Z,2.87
2023-04-27T07:58:57.874Z,2.47
2023-04-27T08:01:25.349Z,2.40
2023-04-27T08:03:52.799Z,2.40
2023-04-27T08:06:21.032Z,2.57
2023-04-27T08:08:49.014Z,3.23
2023-04-27T08:11:16.300Z,2.87
2023-04-27T08:13:43.521Z,3.03
2023-04-27T08:16:11.224Z,3.10
2023-04-27T08:18:38.550Z,2.50
2023-04-27T08:21:05.945Z,2.63
2023-04-27T08:23:33.480Z,2.60
2023-04-27T08:26:00.811Z,2.40
2023-04-27T08:28:28.131Z,2.70
2023-04-27T08:30:55.663Z,2.90
2023-04-27T08:33:23.341Z,2.50
2023-04-27T08:35:50.717Z,2.90
2023-04-27T08:38:18.111Z,2.70
2023-04-27T08:40:45.766Z,2.90
2023-04-27T08:43:13.499Z,2.63
2023-04-27T08:45:48.728Z,2.60
2023-04-27T08:48:16.386Z,2.73
2023-04-27T08:50:45.404Z,2.70
2023-04-27T08:53:22.525Z,2.67
2023-04-27T08:55:50.707Z,2.40
2023-04-27T08:58:17.955Z,2.70
2023-04-27T09:00:46.091Z,2.53
2023-04-27T09:03:24.936Z,2.60
2023-04-27T09:06:00.667Z,2.93
2023-04-27T09:08:42.179Z,2.47
2023-04-27T09:11:09.480Z,2.50
2023-04-27T09:13:38.389Z,2.50
2023-04-27T09:16:06.470Z,2.53
2023-04-27T09:18:37.916Z,2.13
2023-04-27T09:21:07.072Z,2.40
2023-04-27T09:23:36.782Z,2.60
2023-04-27T09:26:08.202Z,2.67
2023-04-27T09:28:39.292Z,2.87
2023-04-27T09:31:09.479Z,2.83
2023-04-27T09:33:37.043Z,2.80
2023-04-27T09:36:06.412Z,2.50
2023-04-27T09:38:34.647Z,2.30
2023-04-27T09:41:02.389Z,2.57
2023-04-27T09:43:31.467Z,2.50
2023-04-27T09:45:59.149Z,2.30
2023-04-27T09:48:27.075Z,2.57
2023-04-27T09:50:54.739Z,2.30
2023-04-27T09:53:44.956Z,2.77
2023-04-27T09:56:46.597Z,2.53
2023-04-27T09:59:32.475Z,2.87
2023-04-27T10:02:10.004Z,2.30
2023-04-27T10:04:59.994Z,2.30
2023-04-27T10:07:28.072Z,2.57
2023-04-27T10:10:00.850Z,2.30
2023-04-27T10:12:36.554Z,2.20
2023-04-27T10:15:15.837Z,2.30
2023-04-27T10:17:53.045Z,2.60
2023-04-27T10:20:31.054Z,2.70
2023-04-27T10:22:59.451Z,2.40
2023-04-27T10:25:36.674Z,2.30
2023-04-27T10:28:04.562Z,2.37
2023-04-27T10:30:43.587Z,2.60
2023-04-27T10:33:11.954Z,2.70
2023-04-27T10:35:42.226Z,2.73
2023-04-27T10:38:10.904Z,2.57
2023-04-27T10:40:39.328Z,2.43
2023-04-27T10:43:16.340Z,2.83
2023-04-27T10:45:44.630Z,2.40
2023-04-27T10:48:15.867Z,2.33
2023-04-27T10:50:44.956Z,4.20
2023-04-27T10:53:12.769Z,2.53
2023-04-27T10:55:40.306Z,2.77
2023-04-27T10:58:07.974Z,2.40
2023-04-27T11:00:44.626Z,2.40
2023-04-27T11:03:21.564Z,2.53
2023-04-27T11:05:50.329Z,3.23
2023-04-27T11:08:19.420Z,2.90
2023-04-27T11:10:50.139Z,3.10
2023-04-27T11:13:25.203Z,2.73
2023-04-27T11:15:57.813Z,2.43
2023-04-27T11:18:31.668Z,2.87
2023-04-27T11:21:10.512Z,3.10
2023-04-27T11:23:39.035Z,2.57
2023-04-27T11:26:21.526Z,3.13
2023-04-27T11:29:02.011Z,2.90
2023-04-27T11:31:43.883Z,2.73
2023-04-27T11:34:16.831Z,2.77
2023-04-27T11:36:44.425Z,3.20
2023-04-27T11:39:22.422Z,3.27
2023-04-27T11:41:50.134Z,3.43
2023-04-27T11:44:17.510Z,3.10
2023-04-27T11:46:47.475Z,3.00
2023-04-27T11:49:15.506Z,2.70
2023-04-27T11:51:45.034Z,3.63
2023-04-27T11:54:13.167Z,3.23
2023-04-27T11:56:42.369Z,2.80
2023-04-27T11:59:21.321Z,2.93
2023-04-27T12:01:48.893Z,2.77
2023-04-27T12:04:16.997Z,3.00
2023-04-27T12:06:44.591Z,2.83
2023-04-27T12:09:12.109Z,3.47
2023-04-27T12:11:39.482Z,3.40
2023-04-27T12:14:07.223Z,3.40
2023-04-27T12:16:34.594Z,3.80
2023-04-27T12:19:01.919Z,3.17
2023-04-27T12:21:29.210Z,3.80
2023-04-27T12:23:56.526Z,3.60
2023-04-27T12:26:24.053Z,3.67
2023-04-27T12:28:51.726Z,3.20
2023-04-27T12:31:25.315Z,3.93
2023-04-27T12:33:54.292Z,3.83
2023-04-27T12:36:21.528Z,3.40
2023-04-27T12:38:48.846Z,3.57
2023-04-27T12:41:16.365Z,4.57
2023-04-27T12:43:46.108Z,3.63
2023-04-27T12:46:13.575Z,3.57
2023-04-27T12:48:41.128Z,3.93
2023-04-27T12:51:08.895Z,3.90
2023-04-27T12:53:36.149Z,3.80
2023-04-27T12:56:04.690Z,3.30
2023-04-27T12:58:32.142Z,4.03
2023-04-27T13:00:59.410Z,3.53
2023-04-27T13:03:26.957Z,3.43
2023-04-27T13:05:54.766Z,3.90
2023-04-27T13:08:22.441Z,3.73
2023-04-27T13:10:49.959Z,4.33
2023-04-27T13:13:17.365Z,3.70
2023-04-27T13:15:44.686Z,3.87
2023-04-27T13:18:12.230Z,3.70
2023-04-27T13:20:39.941Z,3.70
2023-04-27T13:23:07.365Z,5.47
2023-04-27T13:25:34.628Z,3.30
2023-04-27T13:28:02.151Z,4.50
2023-04-27T13:30:31.116Z,4.00
2023-04-27T13:33:10.440Z,4.00
2023-04-27T13:35:46.105Z,4.23
2023-04-27T13:38:13.499Z,3.57
2023-04-27T13:40:41.058Z,3.47
2023-04-27T13:43:08.378Z,3.70
2023-04-27T13:45:36.028Z,3.23
2023-04-27T13:48:03.511Z,4.03
2023-04-27T13:50:30.844Z,3.93
2023-04-27T13:52:58.082Z,4.00
2023-04-27T13:55:25.913Z,4.20
2023-04-27T13:57:53.151Z,4.50
2023-04-27T14:00:20.759Z,5.07
2023-04-27T14:02:48.206Z,4.80
2023-04-27T14:05:15.652Z,4.40
2023-04-27T14:07:42.934Z,4.30
2023-04-27T14:10:10.984Z,4.70
2023-04-27T14:12:38.390Z,4.63
2023-04-27T14:15:06.160Z,4.10
2023-04-27T14:17:33.795Z,4.40
2023-04-27T14:20:01.716Z,4.67
2023-04-27T14:22:29.567Z,4.10
2023-04-27T14:24:56.824Z,3.43
2023-04-27T14:27:24.276Z,3.90
2023-04-27T14:29:51.844Z,3.70
2023-04-27T14:32:21.203Z,4.00
2023-04-27T14:34:49.763Z,3.60
2023-04-27T14:37:17.770Z,4.43
2023-04-27T14:39:46.461Z,3.70
2023-04-27T14:42:13.990Z,3.60
2023-04-27T14:44:41.332Z,3.70
2023-04-27T14:47:08.650Z,3.97
2023-04-27T14:49:35.898Z,3.17
2023-04-27T14:52:12.273Z,3.40
2023-04-27T14:54:44.821Z,3.30
2023-04-27T14:57:12.658Z,3.73
2023-04-27T14:59:41.065Z,3.73
2023-04-27T15:02:08.716Z,3.37
2023-04-27T15:04:38.306Z,3.53
2023-04-27T15:07:06.594Z,3.60
2023-04-27T15:09:34.294Z,3.17
2023-04-27T15:12:02.240Z,3.20
2023-04-27T15:14:29.835Z,2.90
2023-04-27T15:16:57.138Z,3.90
2023-04-27T15:19:24.468Z,4.70
2023-04-27T15:21:51.801Z,3.17
2023-04-27T15:24:19.190Z,3.70
2023-04-27T15:26:48.372Z,3.93
2023-04-27T15:29:16.066Z,3.67
2023-04-27T15:31:43.723Z,3.63
2023-04-27T15:34:11.280Z,4.50
2023-04-27T15:36:38.598Z,4.17
2023-04-27T15:39:09.322Z,3.73
2023-04-27T15:41:37.560Z,3.50
2023-04-27T15:44:06.580Z,3.27
2023-04-27T15:46:34.115Z,3.80
2023-04-27T15:49:01.601Z,3.60
2023-04-27T15:51:31.404Z,3.40
2023-04-27T15:53:59.918Z,3.37
2023-04-27T15:56:30.504Z,4.10
2023-04-27T15:58:58.460Z,3.20
2023-04-27T16:01:26.780Z,3.47
2023-04-27T16:03:54.433Z,3.67
2023-04-27T16:06:21.812Z,3.37
2023-04-27T16:08:49.257Z,3.13
2023-04-27T16:11:17.713Z,2.70
2023-04-27T16:13:45.929Z,3.10
2023-04-27T16:16:13.420Z,3.27
2023-04-27T16:18:41.501Z,3.30
2023-04-27T16:21:08.883Z,3.60
2023-04-27T16:23:37.371Z,3.80
2023-04-27T16:26:04.804Z,2.67
2023-04-27T16:28:32.912Z,2.77
2023-04-27T16:31:00.176Z,2.57
2023-04-27T16:33:27.711Z,2.73
2023-04-27T16:35:57.255Z,2.83
2023-04-27T16:38:25.970Z,3.00
2023-04-27T16:40:56.025Z,3.03
2023-04-27T16:43:25.334Z,3.90
2023-04-27T16:45:52.648Z,2.73
2023-04-27T16:48:20.447Z,2.57
2023-04-27T16:50:47.749Z,2.83
2023-04-27T16:53:19.715Z,2.53
2023-04-27T16:55:49.013Z,2.70
2023-04-27T16:58:16.730Z,2.47
2023-04-27T17:00:45.228Z,3.17
2023-04-27T17:03:13.001Z,2.60
2023-04-27T17:05:41.777Z,3.00
2023-04-27T17:08:10.905Z,2.13
2023-04-27T17:10:39.422Z,2.73
2023-04-27T17:13:07.745Z,2.70
2023-04-27T17:15:35.068Z,2.83
2023-04-27T17:18:04.853Z,2.80
2023-04-27T17:20:32.810Z,2.90
2023-04-27T17:23:00.191Z,3.10
2023-04-27T17:25:27.500Z,2.80
2023-04-27T17:27:54.774Z,3.17
2023-04-27T17:30:22.188Z,3.60
2023-04-27T17:32:49.633Z,4.73
2023-04-27T17:35:21.668Z,3.87
2023-04-27T17:37:51.936Z,3.73
2023-04-27T17:40:21.081Z,3.30
2023-04-27T17:42:50.052Z,2.80
2023-04-27T17:45:19.214Z,2.77
2023-04-27T17:47:46.846Z,3.13
2023-04-27T17:50:14.783Z,2.77
2023-04-27T17:52:42.133Z,2.80
2023-04-27T17:55:09.410Z,2.47
2023-04-27T17:57:36.772Z,2.50
2023-04-27T18:00:07.031Z,2.50
2023-04-27T18:02:37.108Z,3.07
2023-04-27T18:05:08.449Z,2.57
2023-04-27T18:07:41.662Z,2.90
2023-04-27T18:10:12.024Z,2.97
2023-04-27T18:12:39.400Z,3.27
2023-04-27T18:15:09.781Z,2.80
2023-04-27T18:17:37.704Z,2.60
2023-04-27T18:20:09.602Z,2.87
2023-04-27T18:22:42.015Z,2.57
2023-04-27T18:25:10.305Z,3.00
2023-04-27T18:27:37.818Z,2.20
2023-04-27T18:30:06.633Z,2.60
2023-04-27T18:32:34.643Z,3.70
2023-04-27T18:35:02.862Z,3.60
2023-04-27T18:37:30.734Z,3.73
2023-04-27T18:39:59.483Z,2.60
2023-04-27T18:42:27.078Z,2.40
2023-04-27T18:45:00.962Z,1.80
2023-04-27T18:47:28.975Z,2.43
2023-04-27T18:49:56.909Z,2.27
2023-04-27T18:52:25.745Z,2.20
2023-04-27T18:54:56.036Z,2.90
2023-04-27T18:57:25.359Z,2.50
2023-04-27T18:59:52.750Z,2.17
2023-04-27T19:02:21.926Z,2.30
2023-04-27T19:04:56.727Z,2.40
2023-04-27T19:07:29.204Z,2.60
2023-04-27T19:09:56.468Z,3.40
2023-04-27T19:12:24.461Z,5.97
2023-04-27T19:14:52.295Z,13.23
2023-04-27T19:17:19.934Z,10.63
2023-04-27T19:19:48.341Z,3.37
2023-04-27T19:22:15.863Z,2.53
2023-04-27T19:24:43.162Z,2.60
2023-04-27T19:27:11.715Z,2.43
2023-04-27T19:29:53.535Z,2.77
2023-04-27T19:32:22.234Z,3.00
2023-04-27T19:34:49.792Z,2.80
2023-04-27T19:37:17.081Z,2.73
2023-04-27T19:39:44.340Z,2.67
2023-04-27T19:42:11.627Z,3.10
2023-04-27T19:44:38.898Z,3.37
2023-04-27T19:47:06.683Z,3.10
2023-04-27T19:49:33.996Z,3.20
2023-04-27T19:52:01.325Z,7.00
2023-04-27T19:54:28.667Z,7.20
2023-04-27T19:56:56.203Z,6.30
2023-04-27T19:59:23.526Z,5.50
2023-04-27T20:01:51.092Z,5.07
2023-04-27T20:04:19.090Z,4.20
2023-04-27T20:06:47.283Z,3.50
2023-04-27T20:09:14.593Z,3.30
2023-04-27T20:11:41.961Z,3.60
2023-04-27T20:14:09.185Z,3.53
2023-04-27T20:16:36.593Z,3.53
2023-04-27T20:19:06.126Z,3.17
2023-04-27T20:21:33.577Z,3.70
2023-04-27T20:24:00.898Z,3.40
2023-04-27T20:26:28.608Z,3.33
2023-04-27T20:28:56.024Z,3.57
2023-04-27T20:31:23.339Z,3.57
2023-04-27T20:33:50.597Z,3.40
2023-04-27T20:36:18.835Z,3.30
2023-04-27T20:38:46.540Z,3.13
2023-04-27T20:41:14.392Z,3.57
2023-04-27T20:43:41.678Z,3.60
2023-04-27T20:46:11.056Z,3.53
2023-04-27T20:48:38.463Z,3.70
2023-04-27T20:51:05.764Z,3.53
2023-04-27T20:53:33.132Z,3.93
2023-04-27T20:56:00.411Z,4.10
2023-04-27T20:58:27.828Z,3.67
2023-04-27T21:00:55.162Z,4.10
2023-04-27T21:03:22.662Z,3.83
2023-04-27T21:05:50.270Z,3.83
2023-04-27T21:08:18.325Z,3.93
2023-04-27T21:10:45.770Z,4.27
2023-04-27T21:13:13.107Z,4.10
2023-04-27T21:15:40.431Z,4.30
2023-04-27T21:18:13.438Z,4.17
2023-04-27T21:20:46.457Z,4.70
2023-04-27T21:23:14.818Z,3.90
2023-04-27T21:25:46.335Z,3.97
2023-04-27T21:28:14.121Z,4.10
2023-04-27T21:30:41.479Z,4.40
2023-04-27T21:33:08.822Z,4.10
2023-04-27T21:35:36.393Z,4.53
2023-04-27T21:38:03.704Z,5.07
2023-04-27T21:40:30.973Z,5.50
2023-04-27T21:42:58.231Z,13.97
2023-04-27T21:45:25.491Z,15.07
2023-04-27T21:47:52.998Z,8.60
2023-04-27T21:50:20.488Z,4.83
2023-04-27T21:52:47.799Z,4.50
2023-04-27T21:55:15.526Z,4.30
2023-04-27T21:57:42.897Z,4.90
2023-04-27T22:00:14.049Z,4.50
2023-04-27T22:02:48.524Z,4.30
2023-04-27T22:05:16.381Z,4.30
2023-04-27T22:07:45.893Z,4.20
2023-04-27T22:10:13.248Z,4.63
2023-04-27T22:12:40.568Z,4.30
2023-04-27T22:15:08.413Z,4.43
2023-04-27T22:17:35.732Z,4.10
2023-04-27T22:20:04.944Z,4.60
2023-04-27T22:22:32.418Z,4.87
2023-04-27T22:24:59.727Z,4.77
2023-04-27T22:27:35.123Z,4.40
2023-04-27T22:30:06.688Z,4.77
2023-04-27T22:32:34.423Z,5.23
2023-04-27T22:35:02.130Z,5.30
2023-04-27T22:37:29.759Z,5.20
2023-04-27T22:39:58.344Z,5.10
2023-04-27T22:42:25.812Z,5.40
2023-04-27T22:44:53.016Z,5.20
2023-04-27T22:47:20.408Z,5.03
2023-04-27T22:49:48.747Z,5.23
2023-04-27T22:52:16.630Z,5.60
2023-04-27T22:54:43.930Z,5.60
2023-04-27T22:57:11.368Z,7.20
2023-04-27T22:59:38.687Z,5.97
2023-04-27T23:02:06.180Z,5.77
2023-04-27T23:04:33.776Z,5.80
2023-04-27T23:07:01.135Z,6.73
2023-04-27T23:09:28.436Z,5.47
2023-04-27T23:11:57.797Z,5.63
2023-04-27T23:14:25.159Z,5.63
2023-04-27T23:16:52.592Z,6.03
2023-04-27T23:19:19.863Z,5.43
2023-04-27T23:21:47.129Z,5.57
2023-04-27T23:24:14.738Z,6.00
2023-04-27T23:26:42.171Z,4.93
2023-04-27T23:29:09.528Z,5.30
2023-04-27T23:31:36.854Z,6.03
2023-04-27T23:34:04.376Z,5.23
2023-04-27T23:36:31.625Z,5.63
2023-04-27T23:38:58.903Z,5.73
2023-04-27T23:41:26.129Z,5.10
2023-04-27T23:43:53.402Z,5.70
2023-04-27T23:46:21.129Z,5.83
2023-04-27T23:48:48.461Z,5.40
2023-04-27T23:51:16.410Z,5.47
2023-04-27T23:53:43.695Z,5.80
2023-04-27T23:56:20.388Z,5.47
2023-04-27T23:58:47.640Z,5.87
